Time,TemperatureF,DewpointF,PressureIn,WindDirection,WindDirectionDegrees,WindSpeedMPH,WindSpeedGustMPH,Humidity,HourlyPrecipIn,Conditions,Clouds,dailyrainin,SoftwareType,DateUTC
2013-01-20 00:00:00,42.0,29.0,29.94,SSW,205,14.0,21.0,60,-99.99,,,-99.99,,2013-01-20 05:00:00,
2013-01-20 00:23:00,42.0,29.0,29.94,SSW,205,14.0,21.0,60,-99.99,,,-99.99,,2013-01-20 05:23:00,
2013-01-20 00:33:00,42.0,29.0,29.94,SSW,205,14.0,21.0,60,-99.99,,,-99.99,,2013-01-20 05:33:00,
2013-01-20 00:43:00,42.0,29.0,29.94,SSW,205,14.0,21.0,60,-99.99,,,-99.99,,2013-01-20 05:43:00,
2013-01-20 00:53:00,42.0,29.0,29.94,SSW,205,14.0,21.0,60,-99.99,,,-99.99,,2013-01-20 05:53:00,
2013-01-20 01:00:00,42.0,29.0,29.88,SW,218,13.0,20.0,60,-99.99,,,-99.99,,2013-01-20 06:00:00,
2013-01-20 01:22:00,42.0,29.0,29.88,SW,218,13.0,20.0,60,-99.99,,,-99.99,,2013-01-20 06:22:00,
2013-01-20 01:33:00,42.0,29.0,29.88,SW,218,13.0,20.0,60,-99.99,,,-99.99,,2013-01-20 06:33:00,
2013-01-20 01:43:00,42.0,29.0,29.88,SW,218,13.0,20.0,60,-99.99,,,-99.99,,2013-01-20 06:43:00,
2013-01-20 01:53:00,42.0,29.0,29.88,SW,218,13.0,20.0,60,-99.99,,,-99.99,,2013-01-20 06:53:00,
2013-01-20 02:00:00,41.0,29.0,29.88,SSW,204,11.0,20.0,62,-99.99,,,-99.99,,2013-01-20 07:00:00,
2013-01-20 02:22:00,41.0,29.0,29.88,SSW,204,11.0,20.0,62,-99.99,,,-99.99,,2013-01-20 07:22:00,
2013-01-20 02:32:00,41.0,29.0,29.88,SSW,204,11.0,20.0,62,-99.99,,,-99.99,,2013-01-20 07:32:00,
2013-01-20 02:42:00,41.0,29.0,29.88,SSW,204,11.0,20.0,62,-99.99,,,-99.99,,2013-01-20 07:42:00,
2013-01-20 02:52:00,41.0,29.0,29.88,SSW,204,11.0,20.0,62,-99.99,,,-99.99,,2013-01-20 07:52:00,
2013-01-20 03:00:00,41.0,29.0,29.85,SW,219,11.0,21.0,62,-99.99,,,-99.99,,2013-01-20 08:00:00,
2013-01-20 03:22:00,41.0,29.0,29.85,SW,219,11.0,21.0,62,-99.99,,,-99.99,,2013-01-20 08:22:00,
2013-01-20 03:32:00,41.0,29.0,29.85,SW,219,11.0,21.0,62,-99.99,,,-99.99,,2013-01-20 08:32:00,
2013-01-20 03:42:00,41.0,29.0,29.85,SW,219,11.0,21.0,62,-99.99,,,-99.99,,2013-01-20 08:42:00,
2013-01-20 03:53:00,41.0,29.0,29.85,SW,219,11.0,21.0,62,-99.99,,,-99.99,,2013-01-20 08:53:00,
2013-01-20 04:00:00,42.0,29.0,29.83,SW,218,15.0,21.0,60,-99.99,,,-99.99,,2013-01-20 09:00:00,
2013-01-20 04:22:00,42.0,29.0,29.83,SW,218,15.0,21.0,60,-99.99,,,-99.99,,2013-01-20 09:22:00,
2013-01-20 04:33:00,42.0,29.0,29.83,SW,218,15.0,21.0,60,-99.99,,,-99.99,,2013-01-20 09:33:00,
2013-01-20 04:42:00,42.0,29.0,29.83,SW,218,15.0,21.0,60,-99.99,,,-99.99,,2013-01-20 09:42:00,
2013-01-20 04:53:00,42.0,29.0,29.83,SW,218,15.0,21.0,60,-99.99,,,-99.99,,2013-01-20 09:53:00,
2013-01-20 05:00:00,42.0,29.0,29.80,SW,222,10.0,19.0,59,-99.99,,,-99.99,,2013-01-20 10:00:00,
2013-01-20 05:23:00,42.0,29.0,29.80,SW,222,10.0,19.0,59,-99.99,,,-99.99,,2013-01-20 10:23:00,
2013-01-20 05:33:00,42.0,29.0,29.80,SW,222,10.0,19.0,59,-99.99,,,-99.99,,2013-01-20 10:33:00,
2013-01-20 05:42:00,42.0,29.0,29.80,SW,222,10.0,19.0,59,-99.99,,,-99.99,,2013-01-20 10:42:00,
2013-01-20 05:53:00,42.0,29.0,29.80,SW,222,10.0,19.0,59,-99.99,,,-99.99,,2013-01-20 10:53:00,
2013-01-20 06:00:00,42.0,29.0,29.77,SW,227,11.0,20.0,58,-99.99,,,-99.99,,2013-01-20 11:00:00,
2013-01-20 06:22:00,42.0,29.0,29.77,SW,227,11.0,20.0,58,-99.99,,,-99.99,,2013-01-20 11:22:00,
2013-01-20 06:33:00,42.0,29.0,29.77,SW,227,11.0,20.0,58,-99.99,,,-99.99,,2013-01-20 11:33:00,
2013-01-20 06:43:00,42.0,29.0,29.77,SW,227,11.0,20.0,58,-99.99,,,-99.99,,2013-01-20 11:43:00,
2013-01-20 06:54:00,42.0,29.0,29.77,SW,227,11.0,20.0,58,-99.99,,,-99.99,,2013-01-20 11:54:00,
2013-01-20 07:00:00,42.0,28.0,29.77,SW,220,9.0,22.0,57,-99.99,,,-99.99,,2013-01-20 12:00:00,
2013-01-20 07:23:00,42.0,28.0,29.77,SW,220,9.0,22.0,57,-99.99,,,-99.99,,2013-01-20 12:23:00,
2013-01-20 07:33:00,42.0,28.0,29.77,SW,220,9.0,22.0,57,-99.99,,,-99.99,,2013-01-20 12:33:00,
2013-01-20 07:43:00,42.0,28.0,29.77,SW,220,9.0,22.0,57,-99.99,,,-99.99,,2013-01-20 12:43:00,
2013-01-20 07:53:00,42.0,28.0,29.77,SW,220,9.0,22.0,57,-99.99,,,-99.99,,2013-01-20 12:53:00,
2013-01-20 08:00:00,43.0,28.0,29.77,SW,224,9.0,21.0,56,-99.99,,,-99.99,,2013-01-20 13:00:00,
2013-01-20 08:23:00,43.0,28.0,29.77,SW,224,9.0,21.0,56,-99.99,,,-99.99,,2013-01-20 13:23:00,
2013-01-20 08:33:00,43.0,28.0,29.77,SW,224,9.0,21.0,56,-99.99,,,-99.99,,2013-01-20 13:33:00,
2013-01-20 08:43:00,43.0,28.0,29.77,SW,224,9.0,21.0,56,-99.99,,,-99.99,,2013-01-20 13:43:00,
2013-01-20 08:53:00,43.0,28.0,29.77,SW,224,9.0,21.0,56,-99.99,,,-99.99,,2013-01-20 13:53:00,
2013-01-20 09:00:00,46.0,29.0,29.77,SW,232,11.0,22.0,51,-99.99,,,-99.99,,2013-01-20 14:00:00,
2013-01-20 09:23:00,46.0,29.0,29.77,SW,232,11.0,22.0,51,-99.99,,,-99.99,,2013-01-20 14:23:00,
2013-01-20 09:33:00,46.0,29.0,29.77,SW,232,11.0,22.0,51,-99.99,,,-99.99,,2013-01-20 14:33:00,
2013-01-20 09:43:00,46.0,29.0,29.77,SW,232,11.0,22.0,51,-99.99,,,-99.99,,2013-01-20 14:43:00,
2013-01-20 09:53:00,46.0,29.0,29.77,SW,232,11.0,22.0,51,-99.99,,,-99.99,,2013-01-20 14:53:00,
2013-01-20 10:00:00,49.0,29.0,29.80,WSW,238,13.0,24.0,45,-99.99,,,-99.99,,2013-01-20 15:00:00,
2013-01-20 10:23:00,49.0,29.0,29.80,WSW,238,13.0,24.0,45,-99.99,,,-99.99,,2013-01-20 15:23:00,
2013-01-20 10:33:00,49.0,29.0,29.80,WSW,238,13.0,24.0,45,-99.99,,,-99.99,,2013-01-20 15:33:00,
2013-01-20 10:43:00,49.0,29.0,29.80,WSW,238,13.0,24.0,45,-99.99,,,-99.99,,2013-01-20 15:43:00,
2013-01-20 10:53:00,49.0,29.0,29.80,WSW,238,13.0,24.0,45,-99.99,,,-99.99,,2013-01-20 15:53:00,
2013-01-20 11:00:00,53.0,29.0,29.77,SW,228,15.0,25.0,39,-99.99,,,-99.99,,2013-01-20 16:00:00,
2013-01-20 11:33:00,53.0,29.0,29.77,SW,228,15.0,25.0,39,-99.99,,,-99.99,,2013-01-20 16:33:00,
2013-01-20 11:43:00,53.0,29.0,29.77,SW,228,15.0,25.0,39,-99.99,,,-99.99,,2013-01-20 16:43:00,
2013-01-20 11:53:00,53.0,29.0,29.77,SW,228,15.0,25.0,39,-99.99,,,-99.99,,2013-01-20 16:53:00,
2013-01-20 12:00:00,55.0,28.0,29.71,WSW,244,24.0,41.0,34,-99.99,,,-99.99,,2013-01-20 17:00:00,
2013-01-20 12:23:00,55.0,28.0,29.71,WSW,244,24.0,41.0,34,-99.99,,,-99.99,,2013-01-20 17:23:00,
2013-01-20 12:33:00,55.0,28.0,29.71,WSW,244,24.0,41.0,34,-99.99,,,-99.99,,2013-01-20 17:33:00,
2013-01-20 12:43:00,55.0,28.0,29.71,WSW,244,24.0,41.0,34,-99.99,,,-99.99,,2013-01-20 17:43:00,
2013-01-20 12:53:00,55.0,28.0,29.71,WSW,244,24.0,41.0,34,-99.99,,,-99.99,,2013-01-20 17:53:00,
2013-01-20 13:00:00,55.0,29.0,29.71,WSW,256,12.0,41.0,36,-99.99,,,-99.99,,2013-01-20 18:00:00,
2013-01-20 13:24:00,55.0,29.0,29.71,WSW,256,12.0,41.0,36,-99.99,,,-99.99,,2013-01-20 18:24:00,
2013-01-20 13:33:00,55.0,29.0,29.71,WSW,256,12.0,41.0,36,-99.99,,,-99.99,,2013-01-20 18:33:00,
2013-01-20 13:43:00,55.0,29.0,29.71,WSW,256,12.0,41.0,36,-99.99,,,-99.99,,2013-01-20 18:43:00,
2013-01-20 13:53:00,55.0,29.0,29.71,WSW,256,12.0,41.0,36,-99.99,,,-99.99,,2013-01-20 18:53:00,
2013-01-20 14:00:00,55.0,28.0,29.71,West,274,15.0,34.0,35,-99.99,,,-99.99,,2013-01-20 19:00:00,
2013-01-20 14:23:00,55.0,28.0,29.71,West,274,15.0,34.0,35,-99.99,,,-99.99,,2013-01-20 19:23:00,
2013-01-20 14:33:00,55.0,28.0,29.71,West,274,15.0,34.0,35,-99.99,,,-99.99,,2013-01-20 19:33:00,
2013-01-20 14:43:00,55.0,28.0,29.71,West,274,15.0,34.0,35,-99.99,,,-99.99,,2013-01-20 19:43:00,
2013-01-20 14:53:00,55.0,28.0,29.71,West,274,15.0,34.0,35,-99.99,,,-99.99,,2013-01-20 19:53:00,
2013-01-20 15:00:00,55.0,24.0,29.74,West,274,16.0,30.0,31,-99.99,,,-99.99,,2013-01-20 20:00:00,
2013-01-20 15:23:00,55.0,24.0,29.74,West,274,16.0,30.0,31,-99.99,,,-99.99,,2013-01-20 20:23:00,
2013-01-20 15:33:00,55.0,24.0,29.74,West,274,16.0,30.0,31,-99.99,,,-99.99,,2013-01-20 20:33:00,
2013-01-20 15:42:00,55.0,24.0,29.74,West,274,16.0,30.0,31,-99.99,,,-99.99,,2013-01-20 20:42:00,
2013-01-20 15:54:00,55.0,24.0,29.74,West,274,16.0,30.0,31,-99.99,,,-99.99,,2013-01-20 20:54:00,
2013-01-20 16:00:00,54.0,26.0,29.77,West,277,23.0,33.0,33,-99.99,,,-99.99,,2013-01-20 21:00:00,
2013-01-20 16:33:00,54.0,26.0,29.77,West,277,23.0,33.0,33,-99.99,,,-99.99,,2013-01-20 21:33:00,
2013-01-20 16:43:00,54.0,26.0,29.77,West,277,23.0,33.0,33,-99.99,,,-99.99,,2013-01-20 21:43:00,
2013-01-20 16:53:00,54.0,26.0,29.77,West,277,23.0,33.0,33,-99.99,,,-99.99,,2013-01-20 21:53:00,
2013-01-20 17:00:00,50.0,16.0,29.83,WNW,294,19.0,30.0,26,-99.99,,,-99.99,,2013-01-20 22:00:00,
2013-01-20 17:23:00,50.0,16.0,29.83,WNW,294,19.0,30.0,26,-99.99,,,-99.99,,2013-01-20 22:23:00,
2013-01-20 17:33:00,50.0,16.0,29.83,WNW,294,19.0,30.0,26,-99.99,,,-99.99,,2013-01-20 22:33:00,
2013-01-20 17:43:00,50.0,16.0,29.83,WNW,294,19.0,30.0,26,-99.99,,,-99.99,,2013-01-20 22:43:00,
2013-01-20 17:53:00,50.0,16.0,29.83,WNW,294,19.0,30.0,26,-99.99,,,-99.99,,2013-01-20 22:53:00,
2013-01-20 18:00:00,47.0,14.0,29.85,WNW,286,17.0,29.0,26,-99.99,,,-99.99,,2013-01-20 23:00:00,
2013-01-20 18:23:00,47.0,14.0,29.85,WNW,286,17.0,29.0,26,-99.99,,,-99.99,,2013-01-20 23:23:00,
2013-01-20 18:33:00,47.0,14.0,29.85,WNW,286,17.0,29.0,26,-99.99,,,-99.99,,2013-01-20 23:33:00,
2013-01-20 18:43:00,47.0,14.0,29.85,WNW,286,17.0,29.0,26,-99.99,,,-99.99,,2013-01-20 23:43:00,
2013-01-20 18:53:00,47.0,14.0,29.85,WNW,286,17.0,29.0,26,-99.99,,,-99.99,,2013-01-20 23:53:00,
2013-01-20 19:00:00,44.0,15.0,29.88,NW,307,15.0,24.0,31,-99.99,,,-99.99,,2013-01-21 00:00:00,
2013-01-20 19:23:00,44.0,15.0,29.88,NW,307,15.0,24.0,31,-99.99,,,-99.99,,2013-01-21 00:23:00,
2013-01-20 19:33:00,44.0,15.0,29.88,NW,307,15.0,24.0,31,-99.99,,,-99.99,,2013-01-21 00:33:00,
2013-01-20 19:43:00,44.0,15.0,29.88,NW,307,15.0,24.0,31,-99.99,,,-99.99,,2013-01-21 00:43:00,
2013-01-20 19:54:00,44.0,15.0,29.88,NW,307,15.0,24.0,31,-99.99,,,-99.99,,2013-01-21 00:54:00,
2013-01-20 20:00:00,41.0,15.0,29.94,WNW,300,14.0,26.0,35,-99.99,,,-99.99,,2013-01-21 01:00:00,
2013-01-20 20:23:00,41.0,15.0,29.94,WNW,300,14.0,26.0,35,-99.99,,,-99.99,,2013-01-21 01:23:00,
2013-01-20 20:33:00,41.0,15.0,29.94,WNW,300,14.0,26.0,35,-99.99,,,-99.99,,2013-01-21 01:33:00,
2013-01-20 20:43:00,41.0,15.0,29.94,WNW,300,14.0,26.0,35,-99.99,,,-99.99,,2013-01-21 01:43:00,
2013-01-20 20:53:00,41.0,15.0,29.94,WNW,300,14.0,26.0,35,-99.99,,,-99.99,,2013-01-21 01:53:00,
2013-01-20 21:00:00,38.0,13.0,29.97,WNW,300,16.0,25.0,35,-99.99,,,-99.99,,2013-01-21 02:00:00,
2013-01-20 21:23:00,38.0,13.0,29.97,WNW,300,16.0,25.0,35,-99.99,,,-99.99,,2013-01-21 02:23:00,
2013-01-20 21:33:00,38.0,13.0,29.97,WNW,300,16.0,25.0,35,-99.99,,,-99.99,,2013-01-21 02:33:00,
2013-01-20 21:43:00,38.0,13.0,29.97,WNW,300,16.0,25.0,35,-99.99,,,-99.99,,2013-01-21 02:43:00,
2013-01-20 21:53:00,38.0,13.0,29.97,WNW,300,16.0,25.0,35,-99.99,,,-99.99,,2013-01-21 02:53:00,
2013-01-20 22:00:00,36.0,15.0,29.97,NW,308,17.0,25.0,43,-99.99,,,-99.99,,2013-01-21 03:00:00,
2013-01-20 22:33:00,36.0,15.0,29.97,NW,308,17.0,25.0,43,-99.99,,,-99.99,,2013-01-21 03:33:00,
2013-01-20 22:43:00,36.0,15.0,29.97,NW,308,17.0,25.0,43,-99.99,,,-99.99,,2013-01-21 03:43:00,
2013-01-20 22:54:00,36.0,15.0,29.97,NW,308,17.0,25.0,43,-99.99,,,-99.99,,2013-01-21 03:54:00,
2013-01-20 23:00:00,33.0,15.0,30.00,NW,304,12.0,18.0,45,-99.99,,,-99.99,,2013-01-21 04:00:00,
2013-01-20 23:23:00,33.0,15.0,30.00,NW,304,12.0,18.0,45,-99.99,,,-99.99,,2013-01-21 04:23:00,
2013-01-20 23:33:00,33.0,15.0,30.00,NW,304,12.0,18.0,45,-99.99,,,-99.99,,2013-01-21 04:33:00,
2013-01-20 23:43:00,33.0,15.0,30.00,NW,304,12.0,18.0,45,-99.99,,,-99.99,,2013-01-21 04:43:00,
2013-01-20 23:53:00,33.0,15.0,30.00,NW,304,12.0,18.0,45,-99.99,,,-99.99,,2013-01-21 04:53:00,